Time,TemperatureF,DewpointF,PressureIn,WindDirection,WindDirectionDegrees,WindSpeedMPH,WindSpeedGustMPH,Humidity,HourlyPrecipIn,Conditions,Clouds,dailyrainin,SoftwareType,DateUTC
2013-02-28 00:00:00,50.7,40.9,29.85,West,270,0.0,0.0,69,-99.99,,,-99.99,WeatherSnoop3.0,2013-02-28 05:00:00,
2013-02-28 00:01:00,50.7,40.9,29.85,West,270,0.0,0.0,69,-99.99,,,-99.99,WeatherSnoop3.0,2013-02-28 05:01:00,
2013-02-28 00:06:00,51.1,40.9,29.85,South,180,0.0,0.0,68,-99.99,,,-99.99,WeatherSnoop3.0,2013-02-28 05:06:00,
2013-02-28 00:11:00,50.9,40.7,29.85,South,180,0.0,0.0,68,-99.99,,,-99.99,WeatherSnoop3.0,2013-02-28 05:11:00,
2013-02-28 00:14:00,50.5,40.4,29.84,South,180,0.0,0.0,68,-99.99,,,-99.99,WeatherSnoop3.0,2013-02-28 05:14:00,
2013-02-28 00:19:00,50.4,40.6,29.84,SW,225,0.0,0.0,69,-99.99,,,-99.99,WeatherSnoop3.0,2013-02-28 05:19:00,
2013-02-28 00:24:00,51.1,40.9,29.84,South,180,1.6,4.5,68,-99.99,,,-99.99,WeatherSnoop3.0,2013-02-28 05:24:00,
2013-02-28 00:29:00,51.1,40.9,29.84,South,180,0.0,0.0,68,-99.99,,,-99.99,WeatherSnoop3.0,2013-02-28 05:29:00,
2013-02-28 00:34:00,50.7,40.5,29.84,West,270,0.0,0.0,68,-99.99,,,-99.99,WeatherSnoop3.0,2013-02-28 05:34:00,
2013-02-28 00:39:00,50.5,40.4,29.84,West,270,0.0,0.0,68,-99.99,,,-99.99,WeatherSnoop3.0,2013-02-28 05:39:00,
2013-02-28 00:44:00,50.4,40.6,29.84,West,270,0.0,0.0,69,-99.99,,,-99.99,WeatherSnoop3.0,2013-02-28 05:44:00,
2013-02-28 00:49:00,50.9,41.1,29.84,SW,225,0.7,3.8,69,-99.99,,,-99.99,WeatherSnoop3.0,2013-02-28 05:49:00,
2013-02-28 00:54:00,51.1,40.5,29.84,South,180,0.0,2.2,67,-99.99,,,-99.99,WeatherSnoop3.0,2013-02-28 05:54:00,
2013-02-28 00:59:00,50.7,40.2,29.83,West,270,0.0,0.0,67,-99.99,,,-99.99,WeatherSnoop3.0,2013-02-28 05:59:00,
2013-02-28 01:04:00,50.7,40.2,29.84,South,180,0.0,0.7,67,-99.99,,,-99.99,WeatherSnoop3.0,2013-02-28 06:04:00,
2013-02-28 01:09:00,50.7,40.2,29.84,North,0,0.0,1.6,67,-99.99,,,-99.99,WeatherSnoop3.0,2013-02-28 06:09:00,
2013-02-28 01:14:00,50.9,40.3,29.84,South,180,0.0,0.0,67,-99.99,,,-99.99,WeatherSnoop3.0,2013-02-28 06:14:00,
2013-02-28 01:19:00,50.9,40.3,29.84,South,180,0.0,0.7,67,-99.99,,,-99.99,WeatherSnoop3.0,2013-02-28 06:19:00,
2013-02-28 01:24:00,50.5,40.0,29.84,NW,315,0.0,0.0,67,-99.99,,,-99.99,WeatherSnoop3.0,2013-02-28 06:24:00,
2013-02-28 01:29:00,50.7,40.2,29.84,SW,225,1.6,3.1,67,-99.99,,,-99.99,WeatherSnoop3.0,2013-02-28 06:29:00,
2013-02-28 01:34:00,50.5,40.0,29.83,West,270,0.0,0.0,67,-99.99,,,-99.99,WeatherSnoop3.0,2013-02-28 06:34:00,
2013-02-28 01:39:00,50.2,40.0,29.83,South,180,0.0,0.0,68,-99.99,,,-99.99,WeatherSnoop3.0,2013-02-28 06:39:00,
2013-02-28 01:44:00,50.5,40.4,29.83,North,0,0.0,0.0,68,-99.99,,,-99.99,WeatherSnoop3.0,2013-02-28 06:44:00,
2013-02-28 01:49:00,50.7,40.2,29.83,NW,315,0.0,1.6,67,-99.99,,,-99.99,WeatherSnoop3.0,2013-02-28 06:49:00,
2013-02-28 01:54:00,50.5,40.0,29.83,West,270,0.0,0.0,67,-99.99,,,-99.99,WeatherSnoop3.0,2013-02-28 06:54:00,
2013-02-28 01:59:00,50.2,39.7,29.83,SW,225,1.6,3.1,67,-99.99,,,-99.99,WeatherSnoop3.0,2013-02-28 06:59:00,
2013-02-28 02:04:00,50.0,39.9,29.83,North,0,0.0,0.0,68,-99.99,,,-99.99,WeatherSnoop3.0,2013-02-28 07:04:00,
2013-02-28 02:09:00,50.0,39.9,29.83,West,270,0.0,0.0,68,-99.99,,,-99.99,WeatherSnoop3.0,2013-02-28 07:09:00,
2013-02-28 02:14:00,50.0,39.9,29.83,East,90,0.0,0.7,68,-99.99,,,-99.99,WeatherSnoop3.0,2013-02-28 07:14:00,
2013-02-28 02:19:00,49.6,39.9,29.83,East,90,0.0,1.6,69,-99.99,,,-99.99,WeatherSnoop3.0,2013-02-28 07:19:00,
2013-02-28 02:24:00,50.0,39.9,29.83,South,180,0.0,0.0,68,-99.99,,,-99.99,WeatherSnoop3.0,2013-02-28 07:24:00,
2013-02-28 02:29:00,49.8,40.4,29.83,South,180,0.0,0.7,70,-99.99,,,-99.99,WeatherSnoop3.0,2013-02-28 07:29:00,
2013-02-28 02:34:00,49.8,40.1,29.82,South,180,0.7,2.2,69,-99.99,,,-99.99,WeatherSnoop3.0,2013-02-28 07:34:00,
2013-02-28 02:39:00,49.8,40.1,29.83,West,270,0.0,0.0,69,-99.99,,,-99.99,WeatherSnoop3.0,2013-02-28 07:39:00,
2013-02-28 02:44:00,50.0,39.9,29.82,North,0,0.7,6.0,68,-99.99,,,-99.99,WeatherSnoop3.0,2013-02-28 07:44:00,
2013-02-28 02:49:00,50.0,39.5,29.82,North,0,0.0,0.0,67,-99.99,,,-99.99,WeatherSnoop3.0,2013-02-28 07:49:00,
2013-02-28 02:54:00,49.6,39.5,29.82,South,180,0.0,0.0,68,-99.99,,,-99.99,WeatherSnoop3.0,2013-02-28 07:54:00,
2013-02-28 02:59:00,49.6,39.9,29.82,West,270,0.0,3.1,69,-99.99,,,-99.99,WeatherSnoop3.0,2013-02-28 07:59:00,
2013-02-28 03:04:00,49.8,40.1,29.81,North,0,0.0,0.0,69,-99.99,,,-99.99,WeatherSnoop3.0,2013-02-28 08:04:00,
2013-02-28 03:09:00,49.6,39.5,29.82,North,0,0.0,0.0,68,-99.99,,,-99.99,WeatherSnoop3.0,2013-02-28 08:09:00,
2013-02-28 03:14:00,50.0,39.5,29.82,West,270,0.0,0.0,67,-99.99,,,-99.99,WeatherSnoop3.0,2013-02-28 08:14:00,
2013-02-28 03:19:00,49.8,39.7,29.81,NW,315,0.0,0.0,68,-99.99,,,-99.99,WeatherSnoop3.0,2013-02-28 08:19:00,
2013-02-28 03:24:00,49.5,39.3,29.81,West,270,0.0,0.0,68,-99.99,,,-99.99,WeatherSnoop3.0,2013-02-28 08:24:00,
2013-02-28 03:29:00,49.5,39.3,29.81,South,180,0.7,3.1,68,-99.99,,,-99.99,WeatherSnoop3.0,2013-02-28 08:29:00,
2013-02-28 03:34:00,49.8,39.7,29.82,North,0,0.0,0.0,68,-99.99,,,-99.99,WeatherSnoop3.0,2013-02-28 08:34:00,
2013-02-28 03:39:00,49.3,39.2,29.82,North,0,0.0,0.0,68,-99.99,,,-99.99,WeatherSnoop3.0,2013-02-28 08:39:00,
2013-02-28 03:44:00,48.9,38.8,29.82,South,180,0.0,0.0,68,-99.99,,,-99.99,WeatherSnoop3.0,2013-02-28 08:44:00,
2013-02-28 03:49:00,48.9,39.2,29.82,South,180,0.0,0.0,69,-99.99,,,-99.99,WeatherSnoop3.0,2013-02-28 08:49:00,
2013-02-28 03:54:00,49.1,39.0,29.82,North,0,0.0,0.0,68,-99.99,,,-99.99,WeatherSnoop3.0,2013-02-28 08:54:00,
2013-02-28 03:59:00,49.1,39.0,29.82,West,270,0.0,0.0,68,-99.99,,,-99.99,WeatherSnoop3.0,2013-02-28 08:59:00,
2013-02-28 04:04:00,48.7,38.7,29.82,West,270,0.0,0.0,68,-99.99,,,-99.99,WeatherSnoop3.0,2013-02-28 09:04:00,
2013-02-28 04:09:00,48.7,39.0,29.82,South,180,0.0,0.0,69,-99.99,,,-99.99,WeatherSnoop3.0,2013-02-28 09:09:00,
2013-02-28 04:14:00,48.4,38.7,29.82,West,270,0.0,0.0,69,-99.99,,,-99.99,WeatherSnoop3.0,2013-02-28 09:14:00,
2013-02-28 04:19:00,49.5,39.7,29.82,South,180,0.0,0.7,69,-99.99,,,-99.99,WeatherSnoop3.0,2013-02-28 09:19:00,
2013-02-28 04:24:00,48.6,38.9,29.82,North,0,0.0,0.0,69,-99.99,,,-99.99,WeatherSnoop3.0,2013-02-28 09:24:00,
2013-02-28 04:29:00,49.1,39.0,29.83,South,180,0.0,0.7,68,-99.99,,,-99.99,WeatherSnoop3.0,2013-02-28 09:29:00,
2013-02-28 04:34:00,49.1,39.0,29.82,North,0,0.0,0.0,68,-99.99,,,-99.99,WeatherSnoop3.0,2013-02-28 09:34:00,
2013-02-28 04:39:00,48.9,38.8,29.82,South,180,0.0,0.0,68,-99.99,,,-99.99,WeatherSnoop3.0,2013-02-28 09:39:00,
2013-02-28 04:44:00,48.6,38.5,29.82,South,180,0.0,0.0,68,-99.99,,,-99.99,WeatherSnoop3.0,2013-02-28 09:44:00,
2013-02-28 04:49:00,48.2,38.5,29.82,North,0,0.0,0.0,69,-99.99,,,-99.99,WeatherSnoop3.0,2013-02-28 09:49:00,
2013-02-28 04:54:00,48.4,39.1,29.82,East,90,0.0,0.0,70,-99.99,,,-99.99,WeatherSnoop3.0,2013-02-28 09:54:00,
2013-02-28 04:59:00,48.4,38.7,29.82,South,180,0.0,0.0,69,-99.99,,,-99.99,WeatherSnoop3.0,2013-02-28 09:59:00,
2013-02-28 05:04:00,48.4,38.7,29.82,South,180,0.0,0.0,69,-99.99,,,-99.99,WeatherSnoop3.0,2013-02-28 10:04:00,
2013-02-28 05:09:00,47.5,38.6,29.82,North,0,0.0,0.0,71,-99.99,,,-99.99,WeatherSnoop3.0,2013-02-28 10:09:00,
2013-02-28 05:14:00,47.5,38.6,29.82,West,270,0.7,1.6,71,-99.99,,,-99.99,WeatherSnoop3.0,2013-02-28 10:14:00,
2013-02-28 05:19:00,48.0,39.1,29.83,South,180,0.0,0.0,71,-99.99,,,-99.99,WeatherSnoop3.0,2013-02-28 10:19:00,
2013-02-28 05:24:00,48.6,38.9,29.83,SW,225,0.0,2.2,69,-99.99,,,-99.99,WeatherSnoop3.0,2013-02-28 10:24:00,
2013-02-28 05:29:00,49.1,38.6,29.83,SW,225,0.0,0.0,67,-99.99,,,-99.99,WeatherSnoop3.0,2013-02-28 10:29:00,
2013-02-28 05:34:00,49.3,38.4,29.83,West,270,0.7,3.1,66,-99.99,,,-99.99,WeatherSnoop3.0,2013-02-28 10:34:00,
2013-02-28 05:39:00,49.3,38.4,29.83,South,180,0.7,2.2,66,-99.99,,,-99.99,WeatherSnoop3.0,2013-02-28 10:39:00,
2013-02-28 05:44:00,49.8,38.9,29.83,West,270,0.0,1.6,66,-99.99,,,-99.99,WeatherSnoop3.0,2013-02-28 10:44:00,
2013-02-28 05:49:00,49.8,38.9,29.83,NW,315,0.0,2.2,66,-99.99,,,-99.99,WeatherSnoop3.0,2013-02-28 10:49:00,
2013-02-28 05:54:00,49.6,38.8,29.83,South,180,0.0,2.2,66,-99.99,,,-99.99,WeatherSnoop3.0,2013-02-28 10:54:00,
2013-02-28 05:59:00,49.3,38.4,29.83,SW,225,0.0,1.6,66,-99.99,,,-99.99,WeatherSnoop3.0,2013-02-28 10:59:00,
2013-02-28 06:04:00,49.1,38.6,29.83,South,180,0.0,0.0,67,-99.99,,,-99.99,WeatherSnoop3.0,2013-02-28 11:04:00,
2013-02-28 06:09:00,49.3,38.8,29.83,West,270,0.0,0.0,67,-99.99,,,-99.99,WeatherSnoop3.0,2013-02-28 11:09:00,
2013-02-28 06:14:00,49.3,38.4,29.83,South,180,1.6,2.2,66,-99.99,,,-99.99,WeatherSnoop3.0,2013-02-28 11:14:00,
2013-02-28 06:19:00,48.9,38.5,29.83,West,270,0.7,1.6,67,-99.99,,,-99.99,WeatherSnoop3.0,2013-02-28 11:19:00,
2013-02-28 06:24:00,49.6,39.1,29.83,West,270,0.0,2.2,67,-99.99,,,-99.99,WeatherSnoop3.0,2013-02-28 11:24:00,
2013-02-28 06:29:00,49.3,38.8,29.84,South,180,0.7,2.2,67,-99.99,,,-99.99,WeatherSnoop3.0,2013-02-28 11:29:00,
2013-02-28 06:34:00,49.1,38.6,29.84,North,0,0.0,0.0,67,-99.99,,,-99.99,WeatherSnoop3.0,2013-02-28 11:34:00,
2013-02-28 06:39:00,48.4,37.9,29.84,SW,225,0.0,0.0,67,-99.99,,,-99.99,WeatherSnoop3.0,2013-02-28 11:39:00,
2013-02-28 06:44:00,48.2,38.1,29.85,North,0,0.0,0.0,68,-99.99,,,-99.99,WeatherSnoop3.0,2013-02-28 11:44:00,
2013-02-28 06:49:00,48.4,38.3,29.85,NW,315,0.0,0.0,68,-99.99,,,-99.99,WeatherSnoop3.0,2013-02-28 11:49:00,
2013-02-28 06:54:00,48.2,38.5,29.85,SW,225,0.7,3.8,69,-99.99,,,-99.99,WeatherSnoop3.0,2013-02-28 11:54:00,
2013-02-28 06:59:00,48.4,38.3,29.85,West,270,0.0,1.6,68,-99.99,,,-99.99,WeatherSnoop3.0,2013-02-28 11:59:00,
2013-02-28 07:04:00,48.4,38.3,29.86,East,90,0.7,3.1,68,-99.99,,,-99.99,WeatherSnoop3.0,2013-02-28 12:04:00,
2013-02-28 07:09:00,48.4,38.3,29.86,East,90,0.7,3.1,68,-99.99,,,-99.99,WeatherSnoop3.0,2013-02-28 12:09:00,
2013-02-28 07:14:00,48.2,38.1,29.86,South,180,2.2,3.1,68,-99.99,,,-99.99,WeatherSnoop3.0,2013-02-28 12:14:00,
2013-02-28 07:24:00,48.7,37.9,29.86,North,0,0.0,0.0,66,-99.99,,,-99.99,WeatherSnoop3.0,2013-02-28 12:24:00,
2013-02-28 07:29:00,49.3,38.0,29.86,North,0,0.0,0.7,65,-99.99,,,-99.99,WeatherSnoop3.0,2013-02-28 12:29:00,
2013-02-28 07:34:00,49.5,37.8,29.86,NE,45,0.0,0.0,64,-99.99,,,-99.99,WeatherSnoop3.0,2013-02-28 12:34:00,
2013-02-28 07:39:00,49.6,38.0,29.86,South,180,3.1,6.0,64,-99.99,,,-99.99,WeatherSnoop3.0,2013-02-28 12:39:00,
2013-02-28 07:44:00,49.8,37.3,29.86,South,180,1.6,3.8,62,-99.99,,,-99.99,WeatherSnoop3.0,2013-02-28 12:44:00,
2013-02-28 07:49:00,50.0,36.2,29.86,West,270,1.6,3.8,59,-99.99,,,-99.99,WeatherSnoop3.0,2013-02-28 12:49:00,
2013-02-28 07:54:00,50.4,36.1,29.86,West,270,0.0,0.0,58,-99.99,,,-99.99,WeatherSnoop3.0,2013-02-28 12:54:00,
2013-02-28 07:59:00,50.4,36.6,29.87,West,270,0.0,1.6,59,-99.99,,,-99.99,WeatherSnoop3.0,2013-02-28 12:59:00,
2013-02-28 08:04:00,50.9,37.1,29.87,South,180,1.6,3.8,59,-99.99,,,-99.99,WeatherSnoop3.0,2013-02-28 13:04:00,
2013-02-28 08:09:00,50.9,36.7,29.87,West,270,2.2,4.5,58,-99.99,,,-99.99,WeatherSnoop3.0,2013-02-28 13:09:00,
2013-02-28 08:14:00,51.3,36.1,29.88,NW,315,0.0,0.0,56,-99.99,,,-99.99,WeatherSnoop3.0,2013-02-28 13:14:00,
2013-02-28 08:19:00,52.0,35.4,29.88,South,180,0.7,3.1,53,-99.99,,,-99.99,WeatherSnoop3.0,2013-02-28 13:19:00,
2013-02-28 08:24:00,52.2,35.1,29.88,South,180,1.6,3.1,52,-99.99,,,-99.99,WeatherSnoop3.0,2013-02-28 13:24:00,
2013-02-28 08:29:00,51.8,34.3,29.88,North,0,0.0,0.0,51,-99.99,,,-99.99,WeatherSnoop3.0,2013-02-28 13:29:00,
2013-02-28 08:34:00,52.2,35.1,29.88,West,270,5.4,9.2,52,-99.99,,,-99.99,WeatherSnoop3.0,2013-02-28 13:34:00,
2013-02-28 08:39:00,51.6,34.6,29.87,South,180,1.6,3.8,52,-99.99,,,-99.99,WeatherSnoop3.0,2013-02-28 13:39:00,
2013-02-28 08:44:00,52.2,34.1,29.87,West,270,0.0,0.0,50,-99.99,,,-99.99,WeatherSnoop3.0,2013-02-28 13:44:00,
2013-02-28 08:49:00,52.0,33.4,29.87,East,90,0.0,3.8,49,-99.99,,,-99.99,WeatherSnoop3.0,2013-02-28 13:49:00,
2013-02-28 08:54:00,51.8,32.7,29.87,SW,225,0.7,2.2,48,-99.99,,,-99.99,WeatherSnoop3.0,2013-02-28 13:54:00,
2013-02-28 08:59:00,52.3,34.3,29.87,SW,225,0.0,0.7,50,-99.99,,,-99.99,WeatherSnoop3.0,2013-02-28 13:59:00,
2013-02-28 09:04:00,52.3,34.3,29.87,North,0,0.0,0.0,50,-99.99,,,-99.99,WeatherSnoop3.0,2013-02-28 14:04:00,
2013-02-28 09:09:00,52.9,34.8,29.88,North,0,0.0,3.1,50,-99.99,,,-99.99,WeatherSnoop3.0,2013-02-28 14:09:00,
2013-02-28 09:14:00,52.7,34.1,29.87,South,180,0.0,3.8,49,-99.99,,,-99.99,WeatherSnoop3.0,2013-02-28 14:14:00,
2013-02-28 09:19:00,52.7,34.6,29.87,East,90,0.7,3.1,50,-99.99,,,-99.99,WeatherSnoop3.0,2013-02-28 14:19:00,
2013-02-28 09:24:00,52.7,34.1,29.87,North,0,0.0,2.2,49,-99.99,,,-99.99,WeatherSnoop3.0,2013-02-28 14:24:00,
2013-02-28 09:29:00,52.7,34.1,29.87,NW,315,0.7,3.8,49,-99.99,,,-99.99,WeatherSnoop3.0,2013-02-28 14:29:00,
2013-02-28 09:34:00,53.6,35.4,29.87,South,180,1.6,5.4,50,-99.99,,,-99.99,WeatherSnoop3.0,2013-02-28 14:34:00,
2013-02-28 09:39:00,53.8,34.6,29.87,SW,225,0.0,3.1,48,-99.99,,,-99.99,WeatherSnoop3.0,2013-02-28 14:39:00,
2013-02-28 09:44:00,54.0,33.7,29.87,West,270,0.0,0.7,46,-99.99,,,-99.99,WeatherSnoop3.0,2013-02-28 14:44:00,
2013-02-28 09:49:00,55.2,34.8,29.87,South,180,0.0,3.1,46,-99.99,,,-99.99,WeatherSnoop3.0,2013-02-28 14:49:00,
2013-02-28 09:54:00,56.7,36.1,29.87,South,180,2.2,8.3,46,-99.99,,,-99.99,WeatherSnoop3.0,2013-02-28 14:54:00,
2013-02-28 09:59:00,57.2,35.5,29.87,North,0,0.0,0.0,44,-99.99,,,-99.99,WeatherSnoop3.0,2013-02-28 14:59:00,
2013-02-28 10:04:00,58.1,35.7,29.86,SW,225,0.0,1.6,43,-99.99,,,-99.99,WeatherSnoop3.0,2013-02-28 15:04:00,
2013-02-28 10:09:00,58.1,34.5,29.87,NW,315,0.0,0.0,41,-99.99,,,-99.99,WeatherSnoop3.0,2013-02-28 15:09:00,
2013-02-28 10:14:00,58.3,34.7,29.86,SW,225,0.7,4.5,41,-99.99,,,-99.99,WeatherSnoop3.0,2013-02-28 15:14:00,
2013-02-28 10:19:00,59.0,34.7,29.86,West,270,0.0,2.2,40,-99.99,,,-99.99,WeatherSnoop3.0,2013-02-28 15:19:00,
2013-02-28 10:24:00,59.0,34.1,29.86,East,90,3.1,13.0,39,-99.99,,,-99.99,WeatherSnoop3.0,2013-02-28 15:24:00,
2013-02-28 10:29:00,58.3,32.8,29.86,West,270,3.1,6.9,38,-99.99,,,-99.99,WeatherSnoop3.0,2013-02-28 15:29:00,
2013-02-28 10:34:00,59.0,32.8,29.86,South,180,0.0,2.2,37,-99.99,,,-99.99,WeatherSnoop3.0,2013-02-28 15:34:00,
2013-02-28 10:39:00,60.4,34.0,29.86,South,180,1.6,4.5,37,-99.99,,,-99.99,WeatherSnoop3.0,2013-02-28 15:39:00,
2013-02-28 10:44:00,59.9,32.9,29.86,NE,45,3.1,4.5,36,-99.99,,,-99.99,WeatherSnoop3.0,2013-02-28 15:44:00,
2013-02-28 10:49:00,57.9,31.1,29.86,East,90,0.7,3.1,36,-99.99,,,-99.99,WeatherSnoop3.0,2013-02-28 15:49:00,
2013-02-28 10:54:00,61.2,34.7,29.86,SW,225,0.0,2.2,37,-99.99,,,-99.99,WeatherSnoop3.0,2013-02-28 15:54:00,
2013-02-28 10:59:00,59.9,32.9,29.86,North,0,0.7,4.5,36,-99.99,,,-99.99,WeatherSnoop3.0,2013-02-28 15:59:00,
2013-02-28 11:04:00,59.9,32.9,29.86,West,270,0.0,1.6,36,-99.99,,,-99.99,WeatherSnoop3.0,2013-02-28 16:04:00,
2013-02-28 11:09:00,60.6,33.5,29.86,NW,315,0.0,1.6,36,-99.99,,,-99.99,WeatherSnoop3.0,2013-02-28 16:09:00,
2013-02-28 11:14:00,61.7,34.5,29.85,East,90,0.0,3.8,36,-99.99,,,-99.99,WeatherSnoop3.0,2013-02-28 16:14:00,
2013-02-28 11:19:00,62.1,34.8,29.85,SW,225,0.0,2.2,36,-99.99,,,-99.99,WeatherSnoop3.0,2013-02-28 16:19:00,
2013-02-28 11:24:00,59.4,31.7,29.85,North,0,0.0,0.0,35,-99.99,,,-99.99,WeatherSnoop3.0,2013-02-28 16:24:00,
2013-02-28 11:29:00,59.5,31.2,29.85,West,270,4.5,5.4,34,-99.99,,,-99.99,WeatherSnoop3.0,2013-02-28 16:29:00,
2013-02-28 11:34:00,59.2,30.8,29.84,South,180,0.7,3.8,34,-99.99,,,-99.99,WeatherSnoop3.0,2013-02-28 16:34:00,
2013-02-28 11:39:00,60.8,31.5,29.84,North,0,0.7,3.1,33,-99.99,,,-99.99,WeatherSnoop3.0,2013-02-28 16:39:00,
2013-02-28 11:44:00,61.3,33.5,29.84,East,90,2.2,5.4,35,-99.99,,,-99.99,WeatherSnoop3.0,2013-02-28 16:44:00,
2013-02-28 11:49:00,59.5,30.4,29.83,SW,225,0.0,3.1,33,-99.99,,,-99.99,WeatherSnoop3.0,2013-02-28 16:49:00,
2013-02-28 11:54:00,61.0,32.4,29.83,NE,45,0.0,0.7,34,-99.99,,,-99.99,WeatherSnoop3.0,2013-02-28 16:54:00,
2013-02-28 11:59:00,61.2,31.8,29.83,West,270,0.0,2.2,33,-99.99,,,-99.99,WeatherSnoop3.0,2013-02-28 16:59:00,
2013-02-28 12:04:00,61.5,31.4,29.83,West,270,5.4,8.3,32,-99.99,,,-99.99,WeatherSnoop3.0,2013-02-28 17:04:00,
2013-02-28 12:09:00,63.7,33.3,29.83,NW,315,0.7,2.2,32,-99.99,,,-99.99,WeatherSnoop3.0,2013-02-28 17:09:00,
2013-02-28 12:14:00,63.1,32.0,29.83,West,270,4.5,7.6,31,-99.99,,,-99.99,WeatherSnoop3.0,2013-02-28 17:14:00,
2013-02-28 12:19:00,61.9,31.7,29.83,South,180,0.0,1.6,32,-99.99,,,-99.99,WeatherSnoop3.0,2013-02-28 17:19:00,
2013-02-28 12:24:00,64.2,33.0,29.83,NW,315,2.2,7.6,31,-99.99,,,-99.99,WeatherSnoop3.0,2013-02-28 17:24:00,
2013-02-28 12:29:00,61.2,26.9,29.82,South,180,0.7,1.6,27,-99.99,,,-99.99,WeatherSnoop3.0,2013-02-28 17:29:00,
2013-02-28 12:34:00,63.1,32.0,29.82,NE,45,0.7,3.1,31,-99.99,,,-99.99,WeatherSnoop3.0,2013-02-28 17:34:00,
2013-02-28 12:39:00,63.9,31.8,29.82,South,180,0.0,0.7,30,-99.99,,,-99.99,WeatherSnoop3.0,2013-02-28 17:39:00,
2013-02-28 12:44:00,62.1,28.6,29.82,North,0,3.8,6.9,28,-99.99,,,-99.99,WeatherSnoop3.0,2013-02-28 17:44:00,
2013-02-28 12:49:00,64.6,31.6,29.82,SW,225,4.5,9.2,29,-99.99,,,-99.99,WeatherSnoop3.0,2013-02-28 17:49:00,
2013-02-28 12:54:00,61.5,29.0,29.82,NW,315,3.8,5.4,29,-99.99,,,-99.99,WeatherSnoop3.0,2013-02-28 17:54:00,
2013-02-28 12:59:00,64.0,32.0,29.81,SW,225,0.0,0.0,30,-99.99,,,-99.99,WeatherSnoop3.0,2013-02-28 17:59:00,
2013-02-28 13:04:00,65.1,35.3,29.81,North,0,0.0,1.6,33,-99.99,,,-99.99,WeatherSnoop3.0,2013-02-28 18:04:00,
2013-02-28 13:09:00,62.8,27.4,29.81,South,180,3.1,9.2,26,-99.99,,,-99.99,WeatherSnoop3.0,2013-02-28 18:09:00,
2013-02-28 13:14:00,63.3,29.7,29.81,South,180,3.1,8.3,28,-99.99,,,-99.99,WeatherSnoop3.0,2013-02-28 18:14:00,
2013-02-28 13:19:00,64.0,29.4,29.80,West,270,0.0,1.6,27,-99.99,,,-99.99,WeatherSnoop3.0,2013-02-28 18:19:00,
2013-02-28 13:24:00,65.8,33.5,29.80,West,270,3.8,6.9,30,-99.99,,,-99.99,WeatherSnoop3.0,2013-02-28 18:24:00,
2013-02-28 13:29:00,62.1,27.7,29.80,SW,225,3.8,6.9,27,-99.99,,,-99.99,WeatherSnoop3.0,2013-02-28 18:29:00,
2013-02-28 13:35:00,62.4,28.0,29.79,SW,225,2.2,4.5,27,-99.99,,,-99.99,WeatherSnoop3.0,2013-02-28 18:35:00,
2013-02-28 13:40:00,63.7,30.0,29.79,North,0,1.6,4.5,28,-99.99,,,-99.99,WeatherSnoop3.0,2013-02-28 18:40:00,
2013-02-28 13:45:00,64.0,29.4,29.79,East,90,0.0,0.7,27,-99.99,,,-99.99,WeatherSnoop3.0,2013-02-28 18:45:00,
2013-02-28 13:50:00,64.8,31.8,29.79,North,0,0.7,3.1,29,-99.99,,,-99.99,WeatherSnoop3.0,2013-02-28 18:50:00,
2013-02-28 13:55:00,64.0,28.5,29.79,South,180,2.2,4.5,26,-99.99,,,-99.99,WeatherSnoop3.0,2013-02-28 18:55:00,
2013-02-28 14:00:00,64.6,29.8,29.79,NE,45,0.7,3.1,27,-99.99,,,-99.99,WeatherSnoop3.0,2013-02-28 19:00:00,
2013-02-28 14:05:00,61.7,25.5,29.79,SW,225,3.8,7.6,25,-99.99,,,-99.99,WeatherSnoop3.0,2013-02-28 19:05:00,
2013-02-28 14:10:00,63.5,28.9,29.79,SW,225,4.5,6.9,27,-99.99,,,-99.99,WeatherSnoop3.0,2013-02-28 19:10:00,
2013-02-28 14:15:00,61.7,27.4,29.78,SW,225,3.1,6.9,27,-99.99,,,-99.99,WeatherSnoop3.0,2013-02-28 19:15:00,
2013-02-28 14:20:00,63.5,30.7,29.79,West,270,0.0,0.0,29,-99.99,,,-99.99,WeatherSnoop3.0,2013-02-28 19:20:00,
2013-02-28 14:25:00,62.1,26.8,29.79,South,180,3.1,8.3,26,-99.99,,,-99.99,WeatherSnoop3.0,2013-02-28 19:25:00,
2013-02-28 14:30:00,63.5,28.9,29.79,North,0,0.0,0.0,27,-99.99,,,-99.99,WeatherSnoop3.0,2013-02-28 19:30:00,
2013-02-28 14:35:00,62.6,27.2,29.79,West,270,4.5,10.7,26,-99.99,,,-99.99,WeatherSnoop3.0,2013-02-28 19:35:00,
2013-02-28 14:40:00,62.2,28.7,29.79,West,270,0.0,0.0,28,-99.99,,,-99.99,WeatherSnoop3.0,2013-02-28 19:40:00,
2013-02-28 14:45:00,62.8,28.3,29.79,South,180,1.6,3.8,27,-99.99,,,-99.99,WeatherSnoop3.0,2013-02-28 19:45:00,
2013-02-28 14:50:00,63.0,29.4,29.79,SW,225,0.0,2.2,28,-99.99,,,-99.99,WeatherSnoop3.0,2013-02-28 19:50:00,
2013-02-28 14:55:00,62.8,29.2,29.79,NE,45,0.7,6.0,28,-99.99,,,-99.99,WeatherSnoop3.0,2013-02-28 19:55:00,
2013-02-28 15:00:00,62.1,29.4,29.80,West,270,0.0,1.6,29,-99.99,,,-99.99,WeatherSnoop3.0,2013-02-28 20:00:00,
2013-02-28 15:05:00,62.1,29.4,29.79,West,270,0.0,1.6,29,-99.99,,,-99.99,WeatherSnoop3.0,2013-02-28 20:05:00,
2013-02-28 15:10:00,62.1,31.1,29.79,SW,225,0.0,2.2,31,-99.99,,,-99.99,WeatherSnoop3.0,2013-02-28 20:10:00,
2013-02-28 15:15:00,62.2,32.0,29.79,SW,225,6.0,9.8,32,-99.99,,,-99.99,WeatherSnoop3.0,2013-02-28 20:15:00,
2013-02-28 15:20:00,62.4,32.2,29.79,West,270,0.0,1.6,32,-99.99,,,-99.99,WeatherSnoop3.0,2013-02-28 20:20:00,
2013-02-28 15:25:00,62.1,31.1,29.80,South,180,2.2,5.4,31,-99.99,,,-99.99,WeatherSnoop3.0,2013-02-28 20:25:00,
2013-02-28 15:30:00,62.2,32.0,29.80,South,180,0.0,1.6,32,-99.99,,,-99.99,WeatherSnoop3.0,2013-02-28 20:30:00,
2013-02-28 15:35:00,62.1,31.1,29.79,North,0,0.7,3.1,31,-99.99,,,-99.99,WeatherSnoop3.0,2013-02-28 20:35:00,
2013-02-28 15:40:00,61.9,30.1,29.79,South,180,1.6,6.0,30,-99.99,,,-99.99,WeatherSnoop3.0,2013-02-28 20:40:00,
2013-02-28 15:45:00,61.7,30.0,29.79,SW,225,0.7,5.4,30,-99.99,,,-99.99,WeatherSnoop3.0,2013-02-28 20:45:00,
2013-02-28 15:50:00,62.1,31.9,29.79,West,270,0.0,0.7,32,-99.99,,,-99.99,WeatherSnoop3.0,2013-02-28 20:50:00,
2013-02-28 15:55:00,61.7,30.8,29.80,South,180,0.0,0.0,31,-99.99,,,-99.99,WeatherSnoop3.0,2013-02-28 20:55:00,
2013-02-28 16:00:00,61.5,30.6,29.79,South,180,0.0,0.7,31,-99.99,,,-99.99,WeatherSnoop3.0,2013-02-28 21:00:00,
2013-02-28 16:05:00,62.6,31.5,29.79,South,180,0.0,0.0,31,-99.99,,,-99.99,WeatherSnoop3.0,2013-02-28 21:05:00,
2013-02-28 16:10:00,61.5,31.4,29.79,North,0,0.0,0.0,32,-99.99,,,-99.99,WeatherSnoop3.0,2013-02-28 21:10:00,
2013-02-28 16:15:00,61.5,31.4,29.78,South,180,0.0,0.7,32,-99.99,,,-99.99,WeatherSnoop3.0,2013-02-28 21:15:00,
2013-02-28 16:20:00,61.5,32.1,29.79,NE,45,1.6,6.9,33,-99.99,,,-99.99,WeatherSnoop3.0,2013-02-28 21:20:00,
2013-02-28 16:25:00,61.5,32.1,29.79,North,0,0.0,1.6,33,-99.99,,,-99.99,WeatherSnoop3.0,2013-02-28 21:25:00,
2013-02-28 16:30:00,61.0,30.9,29.80,West,270,1.6,4.5,32,-99.99,,,-99.99,WeatherSnoop3.0,2013-02-28 21:30:00,
2013-02-28 16:35:00,60.6,31.4,29.80,North,0,0.0,2.2,33,-99.99,,,-99.99,WeatherSnoop3.0,2013-02-28 21:35:00,
2013-02-28 16:40:00,60.4,31.2,29.80,South,180,0.0,0.7,33,-99.99,,,-99.99,WeatherSnoop3.0,2013-02-28 21:40:00,
2013-02-28 16:45:00,59.9,30.7,29.80,West,270,0.0,2.2,33,-99.99,,,-99.99,WeatherSnoop3.0,2013-02-28 21:45:00,
2013-02-28 16:50:00,59.5,30.4,29.80,West,270,0.7,3.8,33,-99.99,,,-99.99,WeatherSnoop3.0,2013-02-28 21:50:00,
2013-02-28 16:55:00,59.7,31.3,29.80,West,270,0.0,2.2,34,-99.99,,,-99.99,WeatherSnoop3.0,2013-02-28 21:55:00,
2013-02-28 17:00:00,59.5,31.2,29.80,SW,225,0.0,0.0,34,-99.99,,,-99.99,WeatherSnoop3.0,2013-02-28 22:00:00,
2013-02-28 17:05:00,59.5,31.2,29.80,SW,225,0.0,0.0,34,-99.99,,,-99.99,WeatherSnoop3.0,2013-02-28 22:05:00,
2013-02-28 17:10:00,59.2,30.8,29.81,South,180,0.0,0.0,34,-99.99,,,-99.99,WeatherSnoop3.0,2013-02-28 22:10:00,
2013-02-28 17:15:00,59.0,30.7,29.81,NW,315,0.7,3.8,34,-99.99,,,-99.99,WeatherSnoop3.0,2013-02-28 22:15:00,
2013-02-28 17:20:00,58.8,32.6,29.81,NW,315,0.0,0.0,37,-99.99,,,-99.99,WeatherSnoop3.0,2013-02-28 22:20:00,
2013-02-28 17:25:00,58.5,33.0,29.81,West,270,0.0,0.7,38,-99.99,,,-99.99,WeatherSnoop3.0,2013-02-28 22:25:00,
2013-02-28 17:30:00,58.1,32.0,29.81,South,180,0.0,0.0,37,-99.99,,,-99.99,WeatherSnoop3.0,2013-02-28 22:30:00,
2013-02-28 17:35:00,57.9,31.8,29.81,North,0,0.0,0.7,37,-99.99,,,-99.99,WeatherSnoop3.0,2013-02-28 22:35:00,
2013-02-28 17:40:00,57.6,32.1,29.81,North,0,0.0,0.0,38,-99.99,,,-99.99,WeatherSnoop3.0,2013-02-28 22:40:00,
2013-02-28 17:45:00,57.0,33.6,29.82,South,180,0.0,0.0,41,-99.99,,,-99.99,WeatherSnoop3.0,2013-02-28 22:45:00,
2013-02-28 17:50:00,57.0,33.6,29.82,West,270,0.0,0.0,41,-99.99,,,-99.99,WeatherSnoop3.0,2013-02-28 22:50:00,
2013-02-28 17:55:00,56.7,33.8,29.83,South,180,0.0,0.0,42,-99.99,,,-99.99,WeatherSnoop3.0,2013-02-28 22:55:00,
2013-02-28 18:00:00,56.7,34.4,29.83,South,180,0.0,0.0,43,-99.99,,,-99.99,WeatherSnoop3.0,2013-02-28 23:00:00,
2013-02-28 18:05:00,56.7,33.8,29.83,East,90,0.0,0.0,42,-99.99,,,-99.99,WeatherSnoop3.0,2013-02-28 23:05:00,
2013-02-28 18:10:00,55.9,33.8,29.83,SW,225,0.0,0.0,43,-99.99,,,-99.99,WeatherSnoop3.0,2013-02-28 23:10:00,
2013-02-28 18:15:00,55.9,34.3,29.83,SW,225,0.0,0.7,44,-99.99,,,-99.99,WeatherSnoop3.0,2013-02-28 23:15:00,
2013-02-28 18:20:00,55.9,34.3,29.83,East,90,0.7,4.5,44,-99.99,,,-99.99,WeatherSnoop3.0,2013-02-28 23:20:00,
2013-02-28 18:25:00,55.8,34.2,29.83,SW,225,0.0,0.0,44,-99.99,,,-99.99,WeatherSnoop3.0,2013-02-28 23:25:00,
2013-02-28 18:30:00,55.6,34.0,29.84,North,0,0.0,0.0,44,-99.99,,,-99.99,WeatherSnoop3.0,2013-02-28 23:30:00,
2013-02-28 18:35:00,55.4,34.4,29.84,North,0,0.0,0.7,45,-99.99,,,-99.99,WeatherSnoop3.0,2013-02-28 23:35:00,
2013-02-28 18:40:00,55.6,34.6,29.84,SW,225,0.0,0.0,45,-99.99,,,-99.99,WeatherSnoop3.0,2013-02-28 23:40:00,
2013-02-28 18:45:00,55.6,34.6,29.84,North,0,0.0,0.0,45,-99.99,,,-99.99,WeatherSnoop3.0,2013-02-28 23:45:00,
2013-02-28 18:50:00,55.2,33.7,29.84,East,90,0.0,0.0,44,-99.99,,,-99.99,WeatherSnoop3.0,2013-02-28 23:50:00,
2013-02-28 18:55:00,55.0,34.1,29.84,NE,45,0.0,0.0,45,-99.99,,,-99.99,WeatherSnoop3.0,2013-02-28 23:55:00,
2013-02-28 19:00:00,55.2,33.7,29.85,North,0,0.0,0.0,44,-99.99,,,-99.99,WeatherSnoop3.0,2013-03-01 00:00:00,
2013-02-28 19:05:00,55.2,33.7,29.85,North,0,0.0,0.0,44,-99.99,,,-99.99,WeatherSnoop3.0,2013-03-01 00:05:00,
2013-02-28 19:10:00,54.9,33.9,29.85,South,180,0.0,0.0,45,-99.99,,,-99.99,WeatherSnoop3.0,2013-03-01 00:10:00,
2013-02-28 19:15:00,54.7,33.8,29.85,South,180,0.0,0.0,45,-99.99,,,-99.99,WeatherSnoop3.0,2013-03-01 00:15:00,
2013-02-28 19:20:00,54.3,34.0,29.85,South,180,0.0,0.0,46,-99.99,,,-99.99,WeatherSnoop3.0,2013-03-01 00:20:00,
2013-02-28 19:25:00,54.1,34.4,29.86,South,180,0.0,0.0,47,-99.99,,,-99.99,WeatherSnoop3.0,2013-03-01 00:25:00,
2013-02-28 19:30:00,54.0,34.7,29.86,South,180,0.0,0.0,48,-99.99,,,-99.99,WeatherSnoop3.0,2013-03-01 00:30:00,
2013-02-28 19:35:00,54.0,35.2,29.86,South,180,0.0,0.0,49,-99.99,,,-99.99,WeatherSnoop3.0,2013-03-01 00:35:00,
2013-02-28 19:40:00,53.8,35.1,29.86,South,180,0.0,0.0,49,-99.99,,,-99.99,WeatherSnoop3.0,2013-03-01 00:40:00,
2013-02-28 19:45:00,53.6,34.9,29.86,South,180,0.0,0.0,49,-99.99,,,-99.99,WeatherSnoop3.0,2013-03-01 00:45:00,
2013-02-28 19:50:00,53.6,35.9,29.87,South,180,0.0,0.0,51,-99.99,,,-99.99,WeatherSnoop3.0,2013-03-01 00:50:00,
2013-02-28 19:55:00,53.4,36.2,29.87,South,180,0.0,0.0,52,-99.99,,,-99.99,WeatherSnoop3.0,2013-03-01 00:55:00,
2013-02-28 20:00:00,53.6,35.9,29.86,North,0,0.0,0.0,51,-99.99,,,-99.99,WeatherSnoop3.0,2013-03-01 01:00:00,
2013-02-28 20:06:00,53.4,36.7,29.86,South,180,0.0,0.0,53,-99.99,,,-99.99,WeatherSnoop3.0,2013-03-01 01:06:00,
2013-02-28 20:12:00,52.9,36.7,29.87,North,0,0.0,0.0,54,-99.99,,,-99.99,WeatherSnoop3.0,2013-03-01 01:12:00,
2013-02-28 20:17:00,52.5,36.4,29.87,North,0,0.0,0.0,54,-99.99,,,-99.99,WeatherSnoop3.0,2013-03-01 01:17:00,
2013-02-28 20:22:00,53.1,36.4,29.87,South,180,0.0,0.0,53,-99.99,,,-99.99,WeatherSnoop3.0,2013-03-01 01:22:00,
2013-02-28 20:27:00,52.9,36.2,29.87,East,90,0.0,1.6,53,-99.99,,,-99.99,WeatherSnoop3.0,2013-03-01 01:27:00,
2013-02-28 20:32:00,53.1,35.9,29.88,NW,315,0.0,0.0,52,-99.99,,,-99.99,WeatherSnoop3.0,2013-03-01 01:32:00,
2013-02-28 20:37:00,53.1,35.9,29.88,North,0,0.0,0.0,52,-99.99,,,-99.99,WeatherSnoop3.0,2013-03-01 01:37:00,
2013-02-28 20:42:00,52.7,35.6,29.88,South,180,0.0,0.0,52,-99.99,,,-99.99,WeatherSnoop3.0,2013-03-01 01:42:00,
2013-02-28 20:47:00,52.7,35.6,29.88,North,0,0.0,0.0,52,-99.99,,,-99.99,WeatherSnoop3.0,2013-03-01 01:47:00,
2013-02-28 20:52:00,52.9,35.7,29.88,North,0,0.0,0.0,52,-99.99,,,-99.99,WeatherSnoop3.0,2013-03-01 01:52:00,
2013-02-28 20:57:00,52.5,35.4,29.88,West,270,0.0,0.0,52,-99.99,,,-99.99,WeatherSnoop3.0,2013-03-01 01:57:00,
2013-02-28 21:02:00,52.5,35.4,29.88,North,0,0.0,0.0,52,-99.99,,,-99.99,WeatherSnoop3.0,2013-03-01 02:02:00,
2013-02-28 21:07:00,52.5,35.4,29.88,North,0,0.0,0.0,52,-99.99,,,-99.99,WeatherSnoop3.0,2013-03-01 02:07:00,
2013-02-28 21:12:00,52.7,35.6,29.88,East,90,0.0,0.0,52,-99.99,,,-99.99,WeatherSnoop3.0,2013-03-01 02:12:00,
2013-02-28 21:19:00,52.0,35.4,29.88,NE,45,0.0,0.7,53,-99.99,,,-99.99,WeatherSnoop3.0,2013-03-01 02:19:00,
2013-02-28 21:24:00,51.6,35.5,29.88,North,0,0.0,0.0,54,-99.99,,,-99.99,WeatherSnoop3.0,2013-03-01 02:24:00,
2013-02-28 21:43:00,51.1,34.6,29.88,East,90,0.0,0.0,53,-99.99,,,-99.99,WeatherSnoop3.0,2013-03-01 02:43:00,